Forside
METAR-TAF:

METAR-TAF

Lufthavne :

Auckland, New Zealand

Breddekreds: 37-01S, længdekreds: 174-48E, højde: 7 m

Aktuelle vejr

Denne rapport blev lavet for 28 minutter siden, kl. 09:00 UTC
Vind 4 kt fra nordnordvest, varierende mellem vestnordvest og nord
Temperatur 10°C
Fugtighed 82%
Tryk 1016 hPa
Sigt 10 km eller mere

METAR: NZAA 230900Z AUTO 33004KT 290V360 9999 SCT049/// 10/07 Q1016 NOSIG

Tid: 21:28 (09:28 UTC)

Vejrudsigter

Denne rapport blev lavet for 4 timer og 19 minutter siden, kl. 05:09 UTC
Foreløbig gælder fra 23 på 06 UTC til 24 på 06 UTC
Vind 10 kt fra vest
Sigt 10 km eller mere
Nogle få skyer i en højde af 3000 ft
Spredte skyer i en højde af 5000 ft
let regnbyger
Midlertidig
fra 24 på 02 UTC til 24 på 06 UTC
Sigt: 6000 m
regnbyger

TAF: NZAA 230509Z 2306/2406 26010KT 9999 -SHRA FEW030 SCT050 TEMPO 2402/2406 6000 SHRA

Vejrobservationer og prognoser fra mere end 4000 lufthavne (METAR og TAF).

De gule og røde prikker repræsenterer de meteorologiske stationer.

Flyt musen over at se navnet på stationen.

Så klik over at se vejr observationer og prognoser.

At skifte det kort: Klik på de grønne knapper med et sort kors for at zoome ind; på den grønne knap med en bindestreg for at zoome ud; eller på de grønne pile for tilstødende kort.


METAR-TAF: